sensor_id;sensor_type;location;lat;lon;timestamp;temperature;humidity
52030;DHT22;38043;53.224;6.580;2023-01-10T20:06:51;6.70;99.90
52030;DHT22;38043;53.224;6.580;2023-01-10T20:09:17;6.40;99.90
52030;DHT22;38043;53.224;6.580;2023-01-10T20:11:43;6.40;99.90
52030;DHT22;38043;53.224;6.580;2023-01-10T20:14:14;6.30;99.90
52030;DHT22;38043;53.224;6.580;2023-01-10T20:16:41;6.40;99.90
52030;DHT22;38043;53.224;6.580;2023-01-10T20:19:08;6.40;99.90
52030;DHT22;38043;53.224;6.580;2023-01-10T20:21:35;6.30;99.90
52030;DHT22;38043;53.224;6.580;2023-01-10T20:24:02;6.40;99.90
52030;DHT22;38043;53.224;6.580;2023-01-10T20:26:28;6.40;99.90
52030;DHT22;38043;53.224;6.580;2023-01-10T20:29:00;6.40;99.90
52030;DHT22;38043;53.224;6.580;2023-01-10T20:31:26;6.40;99.90
52030;DHT22;38043;53.224;6.580;2023-01-10T20:33:52;6.40;99.90
52030;DHT22;38043;53.224;6.580;2023-01-10T20:36:20;6.40;99.90
52030;DHT22;38043;53.224;6.580;2023-01-10T20:38:46;6.50;99.90
52030;DHT22;38043;53.224;6.580;2023-01-10T20:41:18;6.50;99.90
52030;DHT22;38043;53.224;6.580;2023-01-10T20:43:44;6.50;99.90
52030;DHT22;38043;53.224;6.580;2023-01-10T20:46:15;6.60;99.90
52030;DHT22;38043;53.224;6.580;2023-01-10T20:48:42;6.50;99.90
52030;DHT22;38043;53.224;6.580;2023-01-10T20:51:11;6.60;99.90
52030;DHT22;38043;53.224;6.580;2023-01-10T20:53:37;6.60;99.90
52030;DHT22;38043;53.224;6.580;2023-01-10T20:56:04;6.60;99.90
52030;DHT22;38043;53.224;6.580;2023-01-10T20:58:31;6.70;99.90
52030;DHT22;38043;53.224;6.580;2023-01-10T21:00:57;6.70;99.90
52030;DHT22;38043;53.224;6.580;2023-01-10T21:03:23;6.70;99.90
52030;DHT22;38043;53.224;6.580;2023-01-10T21:05:53;6.80;99.90
52030;DHT22;38043;53.224;6.580;2023-01-10T21:08:19;6.80;99.90
52030;DHT22;38043;53.224;6.580;2023-01-10T21:10:45;6.80;99.90
52030;DHT22;38043;53.224;6.580;2023-01-10T21:13:12;6.90;99.90
52030;DHT22;38043;53.224;6.580;2023-01-10T21:15:42;6.90;99.90
52030;DHT22;38043;53.224;6.580;2023-01-10T21:18:09;6.90;99.90
52030;DHT22;38043;53.224;6.580;2023-01-10T21:20:39;7.00;99.90
52030;DHT22;38043;53.224;6.580;2023-01-10T21:23:04;7.00;99.90
52030;DHT22;38043;53.224;6.580;2023-01-10T21:25:30;7.00;99.90
52030;DHT22;38043;53.224;6.580;2023-01-10T21:27:55;7.00;99.90
52030;DHT22;38043;53.224;6.580;2023-01-10T21:30:21;7.10;99.90
52030;DHT22;38043;53.224;6.580;2023-01-10T21:32:47;7.10;99.90
52030;DHT22;38043;53.224;6.580;2023-01-10T21:35:13;7.10;99.90
52030;DHT22;38043;53.224;6.580;2023-01-10T21:37:39;7.20;99.90
52030;DHT22;38043;53.224;6.580;2023-01-10T21:40:05;7.20;99.90
52030;DHT22;38043;53.224;6.580;2023-01-10T21:42:30;7.20;99.90
52030;DHT22;38043;53.224;6.580;2023-01-10T21:45:06;7.20;99.90
52030;DHT22;38043;53.224;6.580;2023-01-10T21:47:33;7.20;99.90
52030;DHT22;38043;53.224;6.580;2023-01-10T21:50:01;7.30;99.90
52030;DHT22;38043;53.224;6.580;2023-01-10T21:52:26;7.30;99.90
52030;DHT22;38043;53.224;6.580;2023-01-10T21:54:52;7.30;99.90
52030;DHT22;38043;53.224;6.580;2023-01-10T21:57:18;7.30;99.90
52030;DHT22;38043;53.224;6.580;2023-01-10T21:59:47;7.50;99.90
52030;DHT22;38043;53.224;6.580;2023-01-10T22:02:14;7.40;99.90
52030;DHT22;38043;53.224;6.580;2023-01-10T22:04:44;7.50;99.90
52030;DHT22;38043;53.224;6.580;2023-01-10T22:07:09;7.40;99.90
52030;DHT22;38043;53.224;6.580;2023-01-10T22:09:35;7.50;99.90
52030;DHT22;38043;53.224;6.580;2023-01-10T22:12:01;7.50;99.90
52030;DHT22;38043;53.224;6.580;2023-01-10T22:14:27;7.50;99.90
52030;DHT22;38043;53.224;6.580;2023-01-10T22:16:52;7.50;99.90
52030;DHT22;38043;53.224;6.580;2023-01-10T22:19:18;7.50;99.90
52030;DHT22;38043;53.224;6.580;2023-01-10T22:21:44;7.60;99.90
52030;DHT22;38043;53.224;6.580;2023-01-10T22:24:10;7.70;99.90
52030;DHT22;38043;53.224;6.580;2023-01-10T22:26:36;7.60;99.90
52030;DHT22;38043;53.224;6.580;2023-01-10T22:29:02;7.60;99.90
52030;DHT22;38043;53.224;6.580;2023-01-10T22:31:28;7.60;99.90
52030;DHT22;38043;53.224;6.580;2023-01-10T22:33:53;7.60;99.90
52030;DHT22;38043;53.224;6.580;2023-01-10T22:36:19;7.70;99.90
52030;DHT22;38043;53.224;6.580;2023-01-10T22:38:46;7.70;99.90
52030;DHT22;38043;53.224;6.580;2023-01-10T22:43:38;7.80;99.90
52030;DHT22;38043;53.224;6.580;2023-01-10T22:46:04;7.80;99.90
52030;DHT22;38043;53.224;6.580;2023-01-10T22:48:30;7.80;99.90
52030;DHT22;38043;53.224;6.580;2023-01-10T22:50:56;7.80;99.90
52030;DHT22;38043;53.224;6.580;2023-01-10T22:53:24;7.80;99.90
52030;DHT22;38043;53.224;6.580;2023-01-10T22:55:51;7.80;99.90
52030;DHT22;38043;53.224;6.580;2023-01-10T22:58:17;7.80;99.90
52030;DHT22;38043;53.224;6.580;2023-01-10T23:00:43;7.80;99.90
52030;DHT22;38043;53.224;6.580;2023-01-10T23:03:08;7.80;99.90
52030;DHT22;38043;53.224;6.580;2023-01-10T23:05:34;7.90;99.90
52030;DHT22;38043;53.224;6.580;2023-01-10T23:07:59;7.90;99.90
52030;DHT22;38043;53.224;6.580;2023-01-10T23:10:25;7.90;99.90
52030;DHT22;38043;53.224;6.580;2023-01-10T23:12:51;7.90;99.90
52030;DHT22;38043;53.224;6.580;2023-01-10T23:15:16;7.90;99.90
52030;DHT22;38043;53.224;6.580;2023-01-10T23:17:42;8.00;99.90
52030;DHT22;38043;53.224;6.580;2023-01-10T23:20:08;8.00;99.90
52030;DHT22;38043;53.224;6.580;2023-01-10T23:22:34;8.00;99.90
52030;DHT22;38043;53.224;6.580;2023-01-10T23:25:00;8.00;99.90
52030;DHT22;38043;53.224;6.580;2023-01-10T23:27:25;8.10;99.90
52030;DHT22;38043;53.224;6.580;2023-01-10T23:29:51;8.00;99.90
52030;DHT22;38043;53.224;6.580;2023-01-10T23:32:17;8.10;99.90
52030;DHT22;38043;53.224;6.580;2023-01-10T23:34:42;8.10;99.90
52030;DHT22;38043;53.224;6.580;2023-01-10T23:37:09;8.10;99.90
52030;DHT22;38043;53.224;6.580;2023-01-10T23:39:34;8.20;99.90
52030;DHT22;38043;53.224;6.580;2023-01-10T23:42:00;8.20;99.90
52030;DHT22;38043;53.224;6.580;2023-01-10T23:44:25;8.20;99.90
52030;DHT22;38043;53.224;6.580;2023-01-10T23:46:54;8.20;99.90
52030;DHT22;38043;53.224;6.580;2023-01-10T23:49:19;8.20;99.90
52030;DHT22;38043;53.224;6.580;2023-01-10T23:51:45;8.20;99.90
52030;DHT22;38043;53.224;6.580;2023-01-10T23:54:11;8.20;99.90
52030;DHT22;38043;53.224;6.580;2023-01-10T23:56:36;8.30;99.90
52030;DHT22;38043;53.224;6.580;2023-01-10T23:59:02;8.30;99.90
